Las Vegas, NM (87701)

9:40 PM MDT on September 01, 2014 (GMT -0600)
Las Vegas Municipal | Change Station
CLOSE
Current Station
Airport
Location: Las Vegas,
Elevation: 6877 ft
Nearby Weather Stations

Elev 6877 ft 35.65 °N, 105.14 °W | Updated 47 minutes ago

Clear
Clear
69 °F
Feels Like 69 °F
N
6
Wind Variable Wind from West

Today
High -- | Low -- °F
--% Chance of Precip.
Yesterday
High -- | Low -- °F
Precip. -- in
6:32 AM 7:27 PM
Waxing Crescent, 47% visible
Pressure 29.81 in
Visibility 10.0 miles
Clouds Clear
Dew Point 35 °F
Humidity 29%
Rainfall 0.00 in
Snow Depth Not available.
UV 0 out of 12
Pollen 8.90 out of 12
Air Quality Not available.
Flu Activity Not available.
METAR KLVS 020253Z AUTO 28005KT 10SM CLR 21/02 A3016 RMK AO2 SLP093 T02060017 53015

More Conditions Fewer Conditions

Pressure 29.81 in
Visibility 10.0 miles
Clouds Clear
Dew Point 35 °F
Humidity 29%
Rainfall 0.00 in
Snow Depth Not available.
UV 0 out of 12
Pollen 8.90 out of 12
Air Quality Not available.
Flu Activity Not available.
METAR KLVS 020253Z AUTO 28005KT 10SM CLR 21/02 A3016 RMK AO2 SLP093 T02060017 53015

More Conditions Fewer Conditions

10-Day Weather Forecast

Almanac

Astronomy

Sep. 01, 2014 Rise Set
Actual Time 6:32 AM MDT 7:27 PM MDT
Civil Twilight 6:06 AM MDT 7:53 PM MDT
Nautical Twilight 5:36 AM MDT 8:24 PM MDT
Astronomical Twilight 5:04 AM MDT 8:56 PM MDT
Moon 1:07 PM MDT (9/1) 11:45 PM MDT (9/1)
Length of Visible Light 13h 46m
Length of Day
12h 54m
Tomorrow will be 2m 9s shorter.
Waxing Crescent, 47% of the Moon is Illuminated
Today
Waxing Crescent
Sep 2
First Quarter
Sep 8
Full
Sep 15
Last Quarter
Sep 24
New

Today's Extremes

State Highs State Lows

Community

WunderPhotos

Upload Photos

1,749,557 photos uploaded!

WunderBlogs® & News

Nearby

Snow Depth

Station Depth Elevation
Wesner Springs 2 in 11120 ft
Santa Fe 1 in 11445 ft
Gallegos Peak 0 in 9800 ft
Tolby 0 in 10180 ft
Quemazon 1 in 9500 ft

Earthquake Activity

City Distance Mag. Time & Date
Trinidad, Colorado 103 miles 2.7 4:20 AM MDT
2014-08-31
Minimum magnitude displayed is 2.5.

Coastal Water Temperatures

Place Temperature
No Stations Reporting

Nearby Weather Stations